Tiempo atmosférico en la estación meteorológica de Plasencia, Cáceres (420 m.)



Fecha
DESCASC
Temp. máxima en grados centígrados (hora)
DESCASC
Temp. mínima en grados centígrados (hora)
DESCASC
Temp. media en grados centígrados
DESCASC
Racha de viento máxima en m/sg (hora)
DESCASC
Velocidad máxima media en intervalos de 10 minutos(hora)
DESCASC
Precipitaciones diarias en mm
DESCASC
Precipitaciones de 00:00 a 06:00 en mm
DESCASC
Precipitaciones de 06:00 a 12:00 en mm
DESCASC
Precipitaciones de 12:00 a 18:00 en mm
DESCASC
Precipitaciones de 18:00 a 24:00 en mm
DESCASC
22-04-2019 22.8 (17:10) 8.1 (08:00) 15.4 10 (21:00) 4.17 (21:00) 0 0 0 0 0
21-04-2019 20.2 (14:00) 9.9 (08:40) 15.1 10.83 (02:20) 4.17 (02:20) 0 0 0 0 0
20-04-2019 25 (17:00) 9.9 (08:10) 17.4 9.17 (23:40) 3.33 (23:40) 0.2 0.2 0 0 0
19-04-2019 19.5 (15:10) 7.7 (06:50) 13.6 9.17 (14:40) 2.78 (14:10) 0 0 0 0 0
18-04-2019 18.5 (15:10) 10.1 (00:00) 14.3 7.5 (17:50) 3.33 (18:00) 0.7 0.2 0.5 0 0
17-04-2019 20.8 (16:00) 11.2 (00:00) 16 8.89 (12:00) 4.17 (18:20) 6.2 0 0 0 6.2
16-04-2019 23.5 (18:10) 7.6 (00:00) 15.5 8.33 (01:00) 2.78 (00:10) 0 0 0 0 0
15-04-2019 21.8 (15:00) 12.3 (00:00) 17 14.17 (15:30) 6.39 (15:30) 0.1 0 0 0.1 0
14-04-2019 24.9 (16:10) 11.9 (00:00) 18.4 10 (13:10) 2.78 (16:00) 0 0 0 0 0
13-04-2019 24.2 (17:40) 8.4 (00:00) 16.3 7.22 (19:30) 3.61 (19:30) 0 0 0 0 0
12-04-2019 22.5 (17:40) 5.9 (00:00) 14.2 7.5 (16:20) 2.5 (16:40) 0 0 0 0 0
11-04-2019 19.7 (17:20) 6.3 (00:00) 13 8.61 (00:20) 3.89 (18:30) 0 0 0 0 0
10-04-2019 18.5 (17:20) 7.1 (00:00) 12.8 11.11 (20:20) 4.44 (20:20) 0.8 0.1 0.1 0 0.6
09-04-2019 17.2 (18:30) 7.3 (00:00) 12.3 11.94 (19:30) 6.11 (17:20) 1.2 0 1.1 0.1 0
08-04-2019 17.7 (16:00) 9 (00:00) 13.4 10 (18:30) 4.44 (15:30) 5.2 5.1 0 0.1 0
07-04-2019 12.8 (14:50) 6.3 (00:00) 9.6 6.39 (16:00) 3.33 (00:20) 4.6 0.5 0.2 0.8 3.1
06-04-2019 11.9 (16:30) 5.1 (00:00) 8.5 12.5 (12:00) 5.28 (17:10) 1.9 0 1.4 0.1 0.4
05-04-2019 12.8 (16:30) 5.7 (00:00) 9.3 12.78 (18:30) 5.83 (18:50) 6.2 5 1 0.2 0
04-04-2019 17.7 (17:10) 4.4 (00:00) 11.1 10.83 (21:20) 4.72 (21:30) 0.8 0 0 0 0.8
03-04-2019 17.5 (15:50) 7.1 (00:00) 12.3 10.28 (17:40) 3.89 (18:00) 0 0 0 0 0
02-04-2019 22 (18:40) 8.4 (00:00) 15.2 7.5 (18:30) 3.61 (19:10) 0.9 0 0 0.9 0
01-04-2019 18.1 (15:20) 10.2 (00:00) 14.2 7.5 (01:50) 2.5 (06:20) 0 0 0 0 0
31-03-2019 21.6 (15:50) 11.5 (00:00) 16.6 9.17 (12:10) 3.33 (16:10) 0 0 0 0 0
30-03-2019 22.2 (16:50) 8.7 (00:00) 15.5 9.72 (05:40) 3.61 (04:40) 0 0 0 0 0
29-03-2019 21.3 (16:20) 9 (00:00) 15.1 10.83 (08:50) 3.61 (08:40) 0 0 0 0 0
28-03-2019 22.6 (16:10) 8.1 (00:00) 15.4 7.78 (07:10) 3.61 (07:30) 0 0 0 0 0
27-03-2019 21.5 (17:10) 9.3 (00:00) 15.4 11.39 (09:10) 4.72 (08:30) 0 0 0 0 0
26-03-2019 24 (16:50) 8.4 (00:00) 16.2 12.22 (23:40) 5 (23:50) 0 0 0 0 0
25-03-2019 24.6 (16:10) 11.4 (00:00) 18 8.33 (21:10) 3.33 (21:30) 0 0 0 0 0

Gráficas

Temp. máximas Temp. mínimas Temp. medias Precipitaciones Rachas de viento máximas Velocidades máximas media en intervalos de 10 minutos

Datos horarios

Fecha y hora oficial Temperatura (ºC) Velocidad del viento (km/h) Dirección del viento Racha (km/h) Dirección de racha Precipitación (mm) Presión (hPa) Tendencia (hPa) Humedad (%)
2019-04-23 23:00:00 7 11 Oeste 29 Oeste 0 -- -- 75
2019-04-23 22:00:00 7.7 15 Oeste 31 Oeste 0 -- -- 72
2019-04-23 21:00:00 8.3 14 Oeste 32 Oeste 0 -- -- 70
2019-04-23 20:00:00 10 11 Oeste 31 Oeste 0 -- -- 67
2019-04-23 19:00:00 12 16 Oeste 40 Oeste 0 -- -- 57
2019-04-23 18:00:00 12.5 16 Oeste 43 Oeste 0 -- -- 62
2019-04-23 17:00:00 11.5 18 Oeste 33 Sudoeste 0 -- -- 73
2019-04-23 16:00:00 10.5 2 Noroeste 35 Sudoeste 3.1 -- -- 94
2019-04-23 15:00:00 9.9 5 Oeste 42 Sudoeste 2.2 -- -- 86
2019-04-23 14:00:00 11.6 9 Oeste 28 Oeste 0.2 -- -- 72
2019-04-23 13:00:00 12.1 8 Sudoeste 34 Sudoeste 0 -- -- 65
2019-04-23 12:00:00 10.6 11 Oeste 27 Oeste 0 -- -- 70
2019-04-23 11:00:00 10.2 10 Oeste 25 Oeste 0 -- -- 76
2019-04-23 10:00:00 7.9 14 Sudoeste 25 Sudoeste 0 -- -- 90
2019-04-23 09:00:00 7 9 Oeste 28 Oeste 0 -- -- 95
2019-04-23 08:00:00 7.1 11 Oeste 28 Oeste 0 -- -- 95
2019-04-23 07:00:00 8 13 Oeste 26 Oeste 0 -- -- 95
2019-04-23 06:00:00 8.7 2 Oeste 11 Sudoeste 0.5 -- -- 96
2019-04-23 05:00:00 8.7 4 Oeste 13 Oeste 0.7 -- -- 95
2019-04-23 04:00:00 9.4 6 Oeste 35 Oeste 0.1 -- -- 89
2019-04-23 03:00:00 12.7 3 Sudoeste 23 Oeste 0 -- -- 79
2019-04-23 02:00:00 13.8 6 Sudoeste 19 Sudoeste 0 -- -- 81
2019-04-23 01:00:00 14.8 5 Oeste 23 Oeste 0 -- -- 65
2019-04-23 00:00:00 16 5 Sudoeste 19 Sudoeste 0 -- -- 55
2019-04-22 23:00:00 16.4 7 Oeste 27 Oeste 0 -- -- 51
2019-04-22 22:00:00 16.8 8 Oeste 32 Sudoeste 0 -- -- 56
2019-04-22 21:00:00 17.8 15 Oeste 36 Oeste 0 -- -- 51
2019-04-22 20:00:00 19.2 11 Oeste 29 Oeste 0 -- -- 45
2019-04-22 19:00:00 20.1 7 Oeste 25 Sudoeste 0 -- -- 42
2019-04-22 18:00:00 21.5 4 Sudoeste 23 Oeste 0 -- -- 42
2019-04-22 17:00:00 22.2 7 Oeste 24 Sudoeste 0 -- -- 42
2019-04-22 16:00:00 20.8 6 Sudoeste 16 Sudoeste 0 -- -- 45
2019-04-22 15:00:00 19.8 5 Oeste 17 Oeste 0 -- -- 48
2019-04-22 14:00:00 20.4 3 Sudoeste 15 Sudoeste 0 -- -- 49
2019-04-22 13:00:00 18.6 3 Sudoeste 12 Oeste 0 -- -- 52
2019-04-22 12:00:00 16.6 2 Sudoeste 11 Este 0 -- -- 57
2019-04-22 11:00:00 15.3 4 Este 12 Este 0 -- -- 62
2019-04-22 10:00:00 12.3 2 Nordeste 11 Este 0 -- -- 75
2019-04-22 09:00:00 9.3 4 Nordeste 14 Nordeste 0 -- -- 85
2019-04-22 08:00:00 8.2 4 Este 9 Este 0 -- -- 87
2019-04-22 07:00:00 8.6 5 Este 15 Este 0 -- -- 86
2019-04-22 06:00:00 9.2 5 Este 11 Este 0 -- -- 84
2019-04-22 05:00:00 10.2 4 Este 14 Este 0 -- -- 79
2019-04-22 04:00:00 10.5 5 Nordeste 13 Este 0 -- -- 76
2019-04-22 03:00:00 11.9 4 Este 14 Este 0 -- -- 65
2019-04-22 02:00:00 12.4 5 Este 13 Este 0 -- -- 64
2019-04-22 01:00:00 13.7 5 Este 19 Nordeste 0 -- -- 59
2019-04-22 00:00:00 14.1 2 Sudeste 14 Este 0 -- -- 59
2019-04-21 23:00:00 13.9 5 Este 14 Sudeste 0 -- -- 59
2019-04-21 22:00:00 13.8 6 Este 16 Este 0 -- -- 61
2019-04-21 21:00:00 15 4 Este 20 Sudeste 0 -- -- 59
2019-04-21 20:00:00 16 6 Sudeste 18 Sudeste 0 -- -- 56
2019-04-21 19:00:00 16.7 4 Este 23 Sudeste 0 -- -- 56
2019-04-21 18:00:00 18 3 Sudeste 18 Sudeste 0 -- -- 51
2019-04-21 17:00:00 18.1 5 Sudeste 15 Sudeste 0 -- -- 52
2019-04-21 16:00:00 18 4 Sudeste 18 Sudeste 0 -- -- 53
2019-04-21 15:00:00 18.3 3 Sudeste 17 Este 0 -- -- 52
2019-04-21 14:00:00 19.3 5 Este 17 Sudeste 0 -- -- 52
2019-04-21 13:00:00 18.5 4 Sudoeste 16 Sudoeste 0 -- -- 55
2019-04-21 12:00:00 17.2 4 Sudeste 18 Este 0 -- -- 59
2019-04-21 11:00:00 15.6 5 Este 17 Este 0 -- -- 67
2019-04-21 10:00:00 13.3 3 Oeste 10 Este 0 -- -- 75
2019-04-21 09:00:00 10.2 0 Calma 8 Sudeste 0 -- -- 83
2019-04-21 08:00:00 10 5 Nordeste 11 Nordeste 0 -- -- 81
2019-04-21 07:00:00 10.8 5 Este 24 Este 0 -- -- 76
2019-04-21 06:00:00 11.6 6 Este 19 Este 0 -- -- 72
2019-04-21 05:00:00 11.4 7 Este 23 Sudeste 0 -- -- 72
2019-04-21 04:00:00 12 9 Sudeste 35 Este 0 -- -- 65
2019-04-21 03:00:00 12.7 12 Este 39 Sudeste 0 -- -- 64
2019-04-21 02:00:00 13.6 13 Este 37 Este 0 -- -- 61
2019-04-21 01:00:00 14.8 11 Este 33 Este 0 -- -- 57
2019-04-21 00:00:00 15.8 9 Sudeste 33 Este 0 -- -- 55
2019-04-20 23:00:00 17.5 11 Este 30 Sudeste 0 -- -- 47
2019-04-20 22:00:00 18.6 5 Sudeste 22 Este 0 -- -- 42
2019-04-20 21:00:00 20.1 4 Sudeste 26 Sudeste 0 -- -- 41
2019-04-20 20:00:00 21.9 5 Sudeste 26 Sudeste 0 -- -- 37
2019-04-20 19:00:00 24.1 5 Sudeste 28 Este 0 -- -- 35
2019-04-20 18:00:00 24.7 8 Sudeste 24 Este 0 -- -- 35
2019-04-20 17:00:00 24.9 6 Sudeste 22 Este 0 -- -- 36
2019-04-20 16:00:00 24.1 6 Sudeste 19 Este 0 -- -- 40
2019-04-20 15:00:00 23.8 6 Sudeste 20 Sudeste 0 -- -- 40
2019-04-20 14:00:00 22.2 3 Sudeste 14 Oeste 0 -- -- 46
2019-04-20 13:00:00 20.2 3 Oeste 13 Noroeste 0 -- -- 53
2019-04-20 12:00:00 17.7 5 Oeste 12 Oeste 0 -- -- 68
2019-04-20 11:00:00 15.2 0 Calma 9 Noroeste 0 -- -- 79
2019-04-20 10:00:00 12 2 Oeste 12 Noroeste 0 -- -- 90
2019-04-20 09:00:00 10.4 4 Oeste 11 Oeste 0 -- -- 95
2019-04-20 08:00:00 10.1 0 Calma 10 Oeste 0 -- -- 95
2019-04-20 07:00:00 10.5 0 Calma 6 Sudoeste 0 -- -- 94
2019-04-20 06:00:00 10.8 2 Sur 12 Noroeste 0 -- -- 94
2019-04-20 05:00:00 10.5 2 Oeste 7 Sudeste 0.2 -- -- 92
2019-04-20 04:00:00 10.7 0 Calma 12 Este 0 -- -- 88
2019-04-20 03:00:00 11.1 4 Sudeste 13 Nordeste 0 -- -- 87
2019-04-20 02:00:00 11.4 0 Calma 16 Sudeste 0 -- -- 86
2019-04-20 01:00:00 12 3 Sudeste 23 Este 0 -- -- 84
2019-04-20 00:00:00 11.8 5 Este 24 Sudeste 0 -- -- 84
2019-04-19 23:00:00 11.7 6 Sudeste 25 Sudeste 0 -- -- 84
2019-04-19 22:00:00 12.3 6 Este 26 Este 0 -- -- 75
2019-04-19 21:00:00 13.5 8 Sudeste 28 Este 0 -- -- 68
2019-04-19 20:00:00 14.9 5 Sudeste 26 Este 0 -- -- 65
2019-04-19 19:00:00 15.8 8 Sudeste 23 Sudeste 0 -- -- 65
2019-04-19 18:00:00 16.4 6 Sudeste 25 Este 0 -- -- 62
2019-04-19 17:00:00 17.4 5 Este 24 Este 0 -- -- 55
2019-04-19 16:00:00 18.3 8 Este 29 Sudeste 0 -- -- 50
2019-04-19 15:00:00 19 6 Sudeste 33 Este 0 -- -- 52
2019-04-19 14:00:00 17 7 Este 24 Este 0 -- -- 58
2019-04-19 13:00:00 17.4 6 Sudeste 26 Sudeste 0 -- -- 62
2019-04-19 12:00:00 15.6 7 Sudeste 28 Sudeste 0 -- -- 72
2019-04-19 11:00:00 13.2 9 Este 26 Este 0 -- -- 81
2019-04-19 10:00:00 11.2 7 Este 18 Este 0 -- -- 91
2019-04-19 09:00:00 9.2 4 Este 12 Este 0 -- -- 97
2019-04-19 08:00:00 8.2 0 Calma 12 Este 0 -- -- 97
2019-04-19 07:00:00 7.9 4 Este 12 Este 0 -- -- 95
2019-04-19 06:00:00 8.1 2 Este 13 Este 0 -- -- 95
2019-04-19 05:00:00 8.5 4 Este 13 Este 0 -- -- 95
2019-04-19 04:00:00 9.4 2 Este 8 Nordeste 0 -- -- 94
2019-04-19 03:00:00 9.8 0 Calma 7 Oeste 0 -- -- 92
2019-04-19 02:00:00 9.9 2 Oeste 9 Sudoeste 0 -- -- 89
2019-04-19 01:00:00 10.2 3 Noroeste 8 Noroeste 0 -- -- 86
2019-04-19 00:00:00 11.1 3 Oeste 10 Noroeste 0 -- -- 83
2019-04-18 23:00:00 11.4 3 Noroeste 16 Norte 0 -- -- 81
2019-04-18 22:00:00 11.5 5 Norte 13 Norte 0 -- -- 81
2019-04-18 21:00:00 12 0 Calma 12 Sudeste 0 -- -- 76
2019-04-18 20:00:00 13.6 3 Sudeste 16 Sudeste 0 -- -- 68
2019-04-18 19:00:00 15.8 5 Nordeste 20 Este 0 -- -- 62
2019-04-18 18:00:00 16.7 12 Este 27 Este 0 -- -- 56
2019-04-18 17:00:00 16 0 Calma 11 Noroeste 0 -- -- 61
2019-04-18 16:00:00 16 5 Norte 18 Norte 0 -- -- 62
2019-04-18 15:00:00 18.4 3 Sur 12 Oeste 0 -- -- 55
2019-04-18 14:00:00 16.1 3 Sur 10 Sur 0 -- -- 66
2019-04-18 13:00:00 15.5 2 Sudeste 10 Este 0 -- -- 68
2019-04-18 12:00:00 13.4 3 Este 12 Este 0 -- -- 80
2019-04-18 11:00:00 12.3 0 Calma 10 Este 0 -- -- 88
2019-04-18 10:00:00 11.6 3 Este 8 Este 0.3 -- -- 92
2019-04-18 09:00:00 10.7 0 Calma 5 Este 0 -- -- 95
2019-04-18 08:00:00 10.1 0 Calma 10 Este 0.2 -- -- 94
2019-04-18 07:00:00 10.6 2 Este 9 Sudeste 0 -- -- 94
2019-04-18 06:00:00 10.7 3 Sudeste 11 Sudeste 0 -- -- 94
2019-04-18 05:00:00 10.8 4 Sudeste 12 Sudeste 0 -- -- 94
2019-04-18 04:00:00 10.6 2 Este 6 Este 0 -- -- 94
2019-04-18 03:00:00 10.9 0 Calma 15 Sudoeste 0.2 -- -- 92
2019-04-18 02:00:00 11.3 4 Sur 13 Sur 0 -- -- 92
2019-04-18 01:00:00 11.3 3 Sur 15 Sur 0 -- -- 92
2019-04-18 00:00:00 11.3 5 Sur 21 Sur 1 -- -- 94
2019-04-17 23:00:00 11.4 3 Sudeste 18 Sudeste 0.7 -- -- 94
2019-04-17 22:00:00 11.6 2 Sudeste 14 Este 2.1 -- -- 94
2019-04-17 21:00:00 11.8 3 Sudeste 13 Sudeste 1.1 -- -- 91
2019-04-17 20:00:00 12.5 2 Sur 17 Sudoeste 1.2 -- -- 88
2019-04-17 19:00:00 13.7 11 Oeste 31 Oeste 0.1 -- -- 84
2019-04-17 18:00:00 18.8 5 Sur 29 Este 0 -- -- 52
2019-04-17 17:00:00 20.1 7 Sudeste 27 Sudeste 0 -- -- 49
2019-04-17 16:00:00 20.8 6 Sudeste 29 Este 0 -- -- 50
2019-04-17 15:00:00 20.1 8 Sudeste 31 Sudeste 0 -- -- 53
2019-04-17 14:00:00 18.1 8 Sudeste 31 Este 0 -- -- 59
2019-04-17 13:00:00 17.5 10 Sudeste 30 Sudeste 0 -- -- 62
2019-04-17 12:00:00 16.8 8 Sudeste 32 Este 0 -- -- 65
2019-04-17 11:00:00 15.7 8 Sudeste 29 Este 0 -- -- 68
2019-04-17 10:00:00 14.3 6 Sudeste 28 Sudeste 0 -- -- 70
2019-04-17 09:00:00 13.3 4 Sudeste 32 Este 0 -- -- 70
2019-04-17 08:00:00 12.9 3 Sudeste 30 Este 0 -- -- 65
2019-04-17 07:00:00 13.5 8 Sudeste 28 Sudeste 0 -- -- 56
2019-04-17 06:00:00 13.6 3 Sudeste 17 Sudeste 0 -- -- 55
2019-04-17 05:00:00 15.2 3 Sudeste 18 Sudeste 0 -- -- 51
2019-04-17 04:00:00 16 2 Sudeste 18 Sur 0 -- -- 48
2019-04-17 03:00:00 16.7 2 Sudeste 14 Sudeste 0 -- -- 45
2019-04-17 02:00:00 16.8 3 Sudeste 15 Sudeste 0 -- -- 46
2019-04-17 01:00:00 16.8 4 Sudeste 22 Sur 0 -- -- 47
2019-04-17 00:00:00 17.6 4 Sudeste 28 Sur 0 -- -- 45
2019-04-16 23:00:00 17.6 6 Sudeste 18 Sudeste 0 -- -- 42
2019-04-16 22:00:00 18.1 4 Este 13 Este 0 -- -- 42
2019-04-16 21:00:00 19.5 4 Sudeste 21 Este 0 -- -- 40
2019-04-16 20:00:00 21.4 5 Sudeste 23 Sudeste 0 -- -- 36
2019-04-16 19:00:00 22.4 8 Sudeste 24 Este 0 -- -- 35
2019-04-16 18:00:00 23.1 6 Sudeste 23 Este 0 -- -- 37
2019-04-16 17:00:00 22.6 5 Sudeste 23 Sudeste 0 -- -- 40
2019-04-16 16:00:00 21.7 6 Sudeste 27 Sudeste 0 -- -- 42
2019-04-16 15:00:00 20.5 4 Sudeste 22 Sudeste 0 -- -- 45
2019-04-16 14:00:00 19.8 6 Sudeste 20 Sudeste 0 -- -- 49
2019-04-16 13:00:00 18.3 4 Sudeste 18 Sudeste 0 -- -- 55
2019-04-16 12:00:00 16.2 5 Sudeste 17 Sudeste 0 -- -- 66
2019-04-16 11:00:00 13.3 9 Sudeste 18 Este 0 -- -- 76
2019-04-16 10:00:00 11.7 3 Sudeste 12 Este 0 -- -- 80
2019-04-16 09:00:00 8.9 4 Nordeste 12 Nordeste 0 -- -- 82
2019-04-16 08:00:00 7.9 4 Este 9 Este 0 -- -- 87
2019-04-16 07:00:00 8.1 6 Este 9 Sudeste 0 -- -- 90
2019-04-16 06:00:00 8.4 0 Calma 3 Sudeste 0 -- -- 90
2019-04-16 05:00:00 9.1 3 Oeste 10 Oeste 0 -- -- 87
2019-04-16 04:00:00 10.4 0 Calma 21 Noroeste 0 -- -- 79
2019-04-16 03:00:00 11.1 4 Noroeste 18 Norte 0 -- -- 75
2019-04-16 02:00:00 12.5 5 Norte 21 Norte 0 -- -- 70
2019-04-16 01:00:00 12.8 9 Norte 30 Norte 0 -- -- 68
2019-04-16 00:00:00 13.3 8 Norte 23 Norte 0 -- -- 73
2019-04-15 23:00:00 12.3 3 Norte 15 Nordeste 0 -- -- 81
2019-04-15 22:00:00 13.7 2 Oeste 22 Nordeste 0 -- -- 75
2019-04-15 21:00:00 15.6 3 Noroeste 9 Noroeste 0 -- -- 72
2019-04-15 20:00:00 16.6 3 Norte 10 Noroeste 0 -- -- 68
2019-04-15 19:00:00 17.5 6 Oeste 16 Noroeste 0 -- -- 70
2019-04-15 18:00:00 15.8 8 Oeste 20 Oeste 0 -- -- 79
2019-04-15 17:00:00 13.6 6 Noroeste 43 Oeste 0.1 -- -- 76
2019-04-15 16:00:00 18.2 19 Oeste 51 Oeste 0 -- -- 54
2019-04-15 15:00:00 21.4 13 Oeste 35 Oeste 0 -- -- 42
2019-04-15 14:00:00 20.6 8 Oeste 28 Oeste 0 -- -- 52
2019-04-15 13:00:00 20.3 6 Oeste 25 Oeste 0 -- -- 57
2019-04-15 12:00:00 18.4 8 Oeste 17 Oeste 0 -- -- 66
2019-04-15 11:00:00 18 5 Sur 16 Sudeste 0 -- -- 70
2019-04-15 10:00:00 17.4 0 Calma 19 Sudeste 0 -- -- 72
2019-04-15 09:00:00 16.6 8 Este 19 Sudeste 0 -- -- 74
2019-04-15 08:00:00 16.1 4 Este 18 Este 0 -- -- 76
2019-04-15 07:00:00 15.8 9 Este 22 Este 0 -- -- 76
2019-04-15 06:00:00 16.5 6 Este 16 Este 0 -- -- 73
2019-04-15 05:00:00 16.4 3 Este 13 Este 0 -- -- 73
2019-04-15 04:00:00 16.9 2 Este 13 Este 0 -- -- 72
2019-04-15 03:00:00 16.3 5 Este 13 Este 0 -- -- 72
2019-04-15 02:00:00 16.7 4 Este 11 Este 0 -- -- 69
2019-04-15 01:00:00 17.1 3 Este 10 Nordeste 0 -- -- 68
2019-04-15 00:00:00 17.8 7 Nordeste 13 Nordeste 0 -- -- 65
2019-04-14 23:00:00 19.1 3 Este 8 Nordeste 0 -- -- 59
2019-04-14 22:00:00 20.3 0 Calma -- -- 0 -- -- 54
2019-04-14 21:00:00 21.2 0 Calma 8 Oeste 0 -- -- 50
2019-04-14 20:00:00 22.6 3 Oeste 12 Oeste 0 -- -- 46
2019-04-14 19:00:00 24.1 7 Oeste 20 Sudoeste 0 -- -- 42
2019-04-14 18:00:00 24.1 6 Oeste 19 Noroeste 0 -- -- 45
2019-04-14 17:00:00 23.2 4 Oeste 23 Noroeste 0 -- -- 46
2019-04-14 16:00:00 24.5 10 Oeste 24 Sudoeste 0 -- -- 45
2019-04-14 15:00:00 23.5 8 Oeste 21 Oeste 0 -- -- 49
2019-04-14 14:00:00 21.8 8 Oeste 36 Noroeste 0 -- -- 53
2019-04-14 13:00:00 19.8 5 Noroeste 14 Oeste 0 -- -- 65
2019-04-14 12:00:00 17.5 4 Noroeste 14 Oeste 0 -- -- 75
2019-04-14 11:00:00 15.3 5 Oeste 13 Oeste 0 -- -- 91
2019-04-14 10:00:00 12.1 6 Oeste 15 Oeste 0 -- -- 97
2019-04-14 09:00:00 12.2 4 Oeste 12 Oeste 0 -- -- 98
2019-04-14 08:00:00 12.2 4 Oeste 12 Sudoeste 0 -- -- 97
2019-04-14 07:00:00 12.2 5 Oeste 19 Oeste 0 -- -- 97
2019-04-14 06:00:00 12.4 5 Oeste 17 Sudoeste 0 -- -- 96
2019-04-14 05:00:00 12.8 5 Noroeste 17 Noroeste 0 -- -- 95
2019-04-14 04:00:00 13.3 3 Oeste 10 Oeste 0 -- -- 92
2019-04-14 03:00:00 13.5 5 Oeste 16 Oeste 0 -- -- 90
2019-04-14 02:00:00 14.5 5 Oeste 14 Noroeste 0 -- -- 85
2019-04-14 01:00:00 15.7 4 Noroeste 18 Noroeste 0 -- -- 76
2019-04-14 00:00:00 16.3 7 Oeste 17 Oeste 0 -- -- 65
2019-04-13 23:00:00 17 4 Oeste 13 Oeste 0 -- -- 51
2019-04-13 22:00:00 17.8 4 Noroeste 18 Oeste 0 -- -- 45
2019-04-13 21:00:00 18.5 8 Oeste 22 Oeste 0 -- -- 41
2019-04-13 20:00:00 19.8 10 Oeste 26 Oeste 0 -- -- 39
2019-04-13 19:00:00 23.5 7 Oeste 26 Oeste 0 -- -- 37
2019-04-13 18:00:00 23.3 8 Noroeste 19 Oeste 0 -- -- 36
2019-04-13 17:00:00 23.7 7 Oeste 19 Noroeste 0 -- -- 35
2019-04-13 16:00:00 23.3 4 Oeste 20 Sudoeste 0 -- -- 37
2019-04-13 15:00:00 22.7 5 Oeste 21 Noroeste 0 -- -- 39
2019-04-13 14:00:00 21.7 4 Noroeste 15 Oeste 0 -- -- 40
2019-04-13 13:00:00 20.1 0 Calma 10 Sudoeste 0 -- -- 42
2019-04-13 12:00:00 18 4 Sudoeste 11 Sudoeste 0 -- -- 48
2019-04-13 11:00:00 15.7 3 Este 7 Este 0 -- -- 51
2019-04-13 10:00:00 11.8 3 Este 6 Este 0 -- -- 69
2019-04-13 09:00:00 9 0 Calma 5 Oeste 0 -- -- 76
2019-04-13 08:00:00 8.5 0 Calma 6 Sudeste 0 -- -- 74
2019-04-13 07:00:00 9.8 0 Calma 7 Este 0 -- -- 69
2019-04-13 06:00:00 10.6 4 Este 9 Este 0 -- -- 61
2019-04-13 05:00:00 10 2 Este 6 Nordeste 0 -- -- 64
2019-04-13 04:00:00 10.3 0 Calma 10 Oeste 0 -- -- 62
2019-04-13 03:00:00 10.2 2 Oeste 7 Oeste 0 -- -- 62
2019-04-13 02:00:00 11.7 0 Calma 5 Sudoeste 0 -- -- 55
2019-04-13 01:00:00 12.6 0 Calma 6 Sudeste 0 -- -- 51
2019-04-13 00:00:00 14.3 0 Calma 13 Nordeste 0 -- -- 46
2019-04-12 23:00:00 16 5 Nordeste 17 Norte 0 -- -- 42
2019-04-12 22:00:00 16.7 4 Norte 14 Noroeste 0 -- -- 41
2019-04-12 21:00:00 18 0 Calma 17 Oeste 0 -- -- 40
2019-04-12 20:00:00 20 7 Oeste 19 Oeste 0 -- -- 38
2019-04-12 19:00:00 21.7 5 Oeste 19 Noroeste 0 -- -- 38
2019-04-12 18:00:00 22.5 4 Noroeste 23 Noroeste 0 -- -- 37
2019-04-12 17:00:00 22.2 3 Noroeste 27 Noroeste 0 -- -- 37
2019-04-12 16:00:00 21.2 8 Oeste 23 Oeste 0 -- -- 38
2019-04-12 15:00:00 19.8 8 Oeste 18 Sudoeste 0 -- -- 40
2019-04-12 14:00:00 19.3 6 Noroeste 19 Noroeste 0 -- -- 40
2019-04-12 13:00:00 17.8 4 Norte 16 Noroeste 0 -- -- 42
2019-04-12 12:00:00 16.1 6 Oeste 14 Noroeste 0 -- -- 48
2019-04-12 11:00:00 12.2 0 Calma 6 Oeste 0 -- -- 59
2019-04-12 10:00:00 9.5 0 Calma 7 Este 0 -- -- 73
2019-04-12 09:00:00 6.6 3 Este 8 Este 0 -- -- 79
2019-04-12 08:00:00 6.1 0 Calma 5 Este 0 -- -- 76
2019-04-12 07:00:00 6.5 0 Calma 4 Este 0 -- -- 70
2019-04-12 06:00:00 7.5 0 Calma 5 Este 0 -- -- 64
2019-04-12 05:00:00 8 0 Calma 4 Sudeste 0 -- -- 63
2019-04-12 04:00:00 8.7 0 Calma 7 Oeste 0 -- -- 59
2019-04-12 03:00:00 9.9 0 Calma 9 Nordeste 0 -- -- 55
2019-04-12 02:00:00 10.4 5 Nordeste 11 Este 0 -- -- 52
2019-04-12 01:00:00 11.1 0 Calma 14 Nordeste 0 -- -- 48
2019-04-12 00:00:00 11.9 2 Nordeste 16 Este 0 -- -- 47
2019-04-11 23:00:00 13.3 3 Este 18 Norte 0 -- -- 42
2019-04-11 22:00:00 13.6 6 Norte 22 Norte 0 -- -- 42
2019-04-11 21:00:00 15.1 7 Norte 21 Norte 0 -- -- 41
2019-04-11 20:00:00 17 9 Nordeste 25 Nordeste 0 -- -- 35
2019-04-11 19:00:00 18.3 8 Norte 30 Nordeste 0 -- -- 35
2019-04-11 18:00:00 19.2 9 Norte 28 Noroeste 0 -- -- 35
2019-04-11 17:00:00 19.5 6 Noroeste 29 Norte 0 -- -- 35
2019-04-11 16:00:00 19.3 6 Noroeste 25 Noroeste 0 -- -- 37
2019-04-11 15:00:00 18.2 6 Norte 23 Noroeste 0 -- -- 41
2019-04-11 14:00:00 17.7 5 Norte 23 Nordeste 0 -- -- 47
2019-04-11 13:00:00 16 3 Norte 16 Noroeste 0 -- -- 52
2019-04-11 12:00:00 14 3 Noroeste 16 Noroeste 0 -- -- 63
2019-04-11 11:00:00 11.7 6 Noroeste 15 Noroeste 0 -- -- 71
2019-04-11 10:00:00 9.1 0 Calma 8 Sudoeste 0 -- -- 79
2019-04-11 09:00:00 7.1 0 Calma 6 Nordeste 0 -- -- 81
2019-04-11 08:00:00 6.8 0 Calma 12 Noroeste 0 -- -- 81
2019-04-11 07:00:00 7 3 Nordeste 11 Nordeste 0 -- -- 81
2019-04-11 06:00:00 8.3 2 Este 31 Nordeste 0 -- -- 74
2019-04-11 05:00:00 9.4 9 Norte 25 Norte 0 -- -- 74
2019-04-11 04:00:00 9.1 5 Nordeste 18 Norte 0 -- -- 72
2019-04-11 03:00:00 10.1 5 Nordeste 23 Norte 0 -- -- 68
2019-04-11 02:00:00 9.4 0 Calma 15 Norte 0 -- -- 72
2019-04-11 01:00:00 9.9 0 Calma 31 Norte 0 -- -- 70
2019-04-11 00:00:00 10.2 9 Norte 27 Nordeste 0 -- -- 72
2019-04-10 23:00:00 9.4 7 Norte 23 Norte 0 -- -- 76
2019-04-10 22:00:00 9.6 6 Norte 32 Norte 0.1 -- -- 74
2019-04-10 21:00:00 10.3 16 Nordeste 40 Norte 0.5 -- -- 69
2019-04-10 20:00:00 13.2 16 Nordeste 35 Nordeste 0 -- -- 48
2019-04-10 19:00:00 16.7 10 Noroeste 32 Noroeste 0 -- -- 40
2019-04-10 18:00:00 18.3 9 Noroeste 30 Noroeste 0 -- -- 39
2019-04-10 17:00:00 18.3 12 Noroeste 32 Oeste 0 -- -- 42
2019-04-10 16:00:00 16.2 10 Noroeste 30 Noroeste 0 -- -- 42
2019-04-10 15:00:00 16.2 11 Noroeste 28 Noroeste 0 -- -- 46
2019-04-10 14:00:00 16.5 7 Noroeste 23 Noroeste 0 -- -- 50
2019-04-10 13:00:00 15.6 6 Noroeste 30 Noroeste 0 -- -- 53
2019-04-10 12:00:00 13.5 8 Noroeste 29 Noroeste 0.1 -- -- 62
2019-04-10 11:00:00 11.1 10 Oeste 25 Noroeste 0 -- -- 72
2019-04-10 10:00:00 9.7 6 Oeste 18 Oeste 0 -- -- 87
2019-04-10 09:00:00 7.5 3 Noroeste 15 Noroeste 0 -- -- 94
2019-04-10 08:00:00 7.3 5 Noroeste 14 Noroeste 0 -- -- 92
2019-04-10 07:00:00 7.3 4 Noroeste 13 Noroeste 0 -- -- 92
2019-04-10 06:00:00 7.1 3 Noroeste 14 Oeste 0 -- -- 92
2019-04-10 05:00:00 7.3 3 Oeste 21 Oeste 0.1 -- -- 88
2019-04-10 04:00:00 8.4 6 Oeste 18 Sudoeste 0 -- -- 83
2019-04-10 03:00:00 8.4 5 Oeste 16 Noroeste 0 -- -- 76
2019-04-10 02:00:00 8.9 6 Oeste 23 Oeste 0 -- -- 76
2019-04-10 01:00:00 10 9 Oeste 20 Noroeste 0 -- -- 72
2019-04-10 00:00:00 10 5 Noroeste 18 Oeste 0 -- -- 76
2019-04-09 23:00:00 10.7 10 Oeste 22 Oeste 0 -- -- 74
2019-04-09 22:00:00 11.3 11 Oeste 26 Oeste 0 -- -- 64
2019-04-09 21:00:00 12.4 11 Oeste 28 Noroeste 0 -- -- 57
2019-04-09 20:00:00 14 15 Oeste 43 Oeste 0 -- -- 51
2019-04-09 19:00:00 15.5 16 Oeste 39 Oeste 0 -- -- 45
2019-04-09 18:00:00 16.8 17 Oeste 42 Oeste 0 -- -- 42
2019-04-09 17:00:00 16.4 17 Oeste 39 Oeste 0 -- -- 49
2019-04-09 16:00:00 16 15 Oeste 33 Oeste 0 -- -- 52
2019-04-09 15:00:00 15.4 12 Oeste 36 Oeste 0 -- -- 57
2019-04-09 14:00:00 12.6 12 Oeste 27 Sudoeste 0 -- -- 70
2019-04-09 13:00:00 11.5 8 Oeste 23 Oeste 0.1 -- -- 83
2019-04-09 12:00:00 9.2 6 Noroeste 34 Sudoeste 1.1 -- -- 92
2019-04-09 11:00:00 9.9 13 Oeste 30 Sudoeste 0 -- -- 82
2019-04-09 10:00:00 9.8 9 Oeste 22 Oeste 0 -- -- 85
2019-04-09 09:00:00 8.6 5 Sudoeste 20 Sudoeste 0 -- -- 90
2019-04-09 08:00:00 8.2 11 Oeste 27 Sudoeste 0 -- -- 89
2019-04-09 07:00:00 8.7 8 Oeste 22 Sudoeste 0 -- -- 91
2019-04-09 06:00:00 8.2 0 Calma 11 Oeste 0 -- -- 90
2019-04-09 05:00:00 7.8 4 Oeste 13 Sudoeste 0 -- -- 91
2019-04-09 04:00:00 7.3 0 Calma 9 Oeste 0 -- -- 89
2019-04-09 03:00:00 7.6 3 Oeste 12 Oeste 0 -- -- 87
2019-04-09 02:00:00 7.6 3 Oeste 10 Noroeste 0 -- -- 86
2019-04-09 01:00:00 8.2 3 Oeste 13 Oeste 0 -- -- 82
2019-04-09 00:00:00 9 5 Oeste 20 Oeste 0 -- -- 76
2019-04-08 23:00:00 9.8 6 Oeste 16 Oeste 0 -- -- 73
2019-04-08 22:00:00 10.6 5 Oeste 18 Oeste 0 -- -- 71
2019-04-08 21:00:00 11.9 9 Oeste 24 Oeste 0 -- -- 64
2019-04-08 20:00:00 12.8 9 Noroeste 26 Noroeste 0 -- -- 61
2019-04-08 19:00:00 14.3 9 Noroeste 36 Sudoeste 0 -- -- 63
2019-04-08 18:00:00 15.8 7 Noroeste 30 Noroeste 0 -- -- 48
2019-04-08 17:00:00 17.4 12 Oeste 32 Sudoeste 0 -- -- 42
2019-04-08 16:00:00 16.6 15 Oeste 31 Oeste 0 -- -- 42
2019-04-08 15:00:00 16.4 10 Oeste 24 Sudoeste 0 -- -- 48
2019-04-08 14:00:00 15.1 13 Oeste 25 Oeste 0 -- -- 57
2019-04-08 13:00:00 14.4 10 Oeste 23 Oeste 0.1 -- -- 62
2019-04-08 12:00:00 13.4 12 Oeste 30 Sudoeste 0 -- -- 73
2019-04-08 11:00:00 11.3 7 Oeste 22 Oeste 0 -- -- 90
2019-04-08 10:00:00 10.5 10 Oeste 23 Oeste 0 -- -- 95
2019-04-08 09:00:00 10.1 8 Oeste 19 Sudoeste 0 -- -- 97
2019-04-08 08:00:00 10.2 7 Oeste 19 Oeste 0 -- -- 97
2019-04-08 07:00:00 10.7 8 Oeste 26 Sudoeste 0 -- -- 96
2019-04-08 06:00:00 10.9 6 Sudoeste 19 Sudoeste 0.6 -- -- 98
2019-04-08 05:00:00 10.6 2 Sur 9 Sudeste 2.3 -- -- 97
2019-04-08 04:00:00 10.1 2 Este 13 Este 1 -- -- 98
2019-04-08 03:00:00 10 3 Este 9 Este 1.2 -- -- 98
2019-04-08 02:00:00 9.7 5 Este 12 Este 0 -- -- 98
2019-04-08 01:00:00 9.6 5 Este 12 Este 0 -- -- 98
2019-04-08 00:00:00 9.8 5 Este 11 Este 0 -- -- 98
2019-04-07 23:00:00 9.8 2 Nordeste 11 Este 0 -- -- 98
2019-04-07 22:00:00 9.8 3 Este 14 Este 0.1 -- -- 98
2019-04-07 21:00:00 9.7 6 Este 18 Este 0.9 -- -- 97
2019-04-07 20:00:00 9.9 8 Este 19 Este 1.2 -- -- 97
2019-04-07 19:00:00 10.4 3 Este 12 Sudeste 0.9 -- -- 95
2019-04-07 18:00:00 11.1 0 Calma 16 Sudoeste 0.8 -- -- 88
2019-04-07 17:00:00 11.9 5 Sudoeste 17 Sudoeste 0 -- -- 72
2019-04-07 16:00:00 12 10 Sudoeste 23 Sudoeste 0 -- -- 69
2019-04-07 15:00:00 12.7 4 Oeste 18 Noroeste 0 -- -- 66
2019-04-07 14:00:00 12.4 3 Oeste 15 Oeste 0 -- -- 67
2019-04-07 13:00:00 11.8 4 Oeste 16 Sudoeste 0 -- -- 70
2019-04-07 12:00:00 10 3 Oeste 15 Oeste 0 -- -- 84
2019-04-07 11:00:00 9.1 5 Noroeste 13 Noroeste 0 -- -- 89
2019-04-07 10:00:00 7.7 3 Noroeste 13 Noroeste 0 -- -- 95
2019-04-07 09:00:00 6.7 3 Noroeste 15 Noroeste 0 -- -- 98
2019-04-07 08:00:00 6.4 4 Noroeste 17 Noroeste 0 -- -- 98
2019-04-07 07:00:00 6.5 5 Noroeste 17 Oeste 0.2 -- -- 98
2019-04-07 06:00:00 6.5 6 Oeste 18 Oeste 0.2 -- -- 98
2019-04-07 05:00:00 6.5 6 Oeste 15 Oeste 0 -- -- 96
2019-04-07 04:00:00 6.3 7 Oeste 18 Oeste 0 -- -- 94
2019-04-07 03:00:00 6.5 5 Oeste 20 Oeste 0 -- -- 92
2019-04-07 02:00:00 6.5 5 Oeste 16 Oeste 0.2 -- -- 92
2019-04-07 01:00:00 7 9 Oeste 22 Oeste 0.1 -- -- 87
2019-04-07 00:00:00 7.1 10 Oeste 29 Oeste 0 -- -- 81
2019-04-06 23:00:00 7.4 8 Oeste 28 Sudoeste 0 -- -- 79
2019-04-06 22:00:00 7.8 11 Oeste 26 Oeste 0 -- -- 74
2019-04-06 21:00:00 8.6 10 Oeste 28 Oeste 0 -- -- 72
2019-04-06 20:00:00 10.2 12 Oeste 30 Oeste 0 -- -- 70
2019-04-06 19:00:00 8.5 6 Noroeste 43 Noroeste 0.4 -- -- 79
2019-04-06 18:00:00 10.1 17 Oeste 37 Oeste 0 -- -- 65
2019-04-06 17:00:00 11.5 18 Oeste 37 Oeste 0 -- -- 63
2019-04-06 16:00:00 10.4 14 Oeste 34 Oeste 0 -- -- 64
2019-04-06 15:00:00 9.6 13 Oeste 29 Oeste 0 -- -- 72
2019-04-06 14:00:00 9.3 12 Oeste 32 Oeste 0 -- -- 76
2019-04-06 13:00:00 8.1 14 Oeste 36 Oeste 0.1 -- -- 84
2019-04-06 12:00:00 6.4 18 Oeste 45 Sudoeste 0.3 -- -- 91
2019-04-06 11:00:00 6.9 13 Oeste 35 Oeste 0 -- -- 92
2019-04-06 10:00:00 6.3 16 Oeste 31 Oeste 0 -- -- 97
2019-04-06 09:00:00 5.9 11 Oeste 26 Oeste 1 -- -- 97
2019-04-06 08:00:00 5.9 10 Oeste 23 Oeste 0.1 -- -- 97
2019-04-06 07:00:00 5.5 5 Oeste 16 Oeste 0 -- -- 96
2019-04-06 06:00:00 5.3 5 Oeste 14 Oeste 0 -- -- 95
2019-04-06 05:00:00 5.4 3 Oeste 12 Sudoeste 0 -- -- 94
2019-04-06 04:00:00 5.2 0 Calma 13 Oeste 0 -- -- 92
2019-04-06 03:00:00 5.3 5 Oeste 12 Oeste 0 -- -- 91
2019-04-06 02:00:00 5.5 4 Oeste 13 Oeste 0 -- -- 87
2019-04-06 01:00:00 5.2 4 Oeste 12 Oeste 0 -- -- 85
2019-04-06 00:00:00 5.7 5 Oeste 22 Oeste 0 -- -- 81
2019-04-05 23:00:00 6.2 7 Oeste 20 Oeste 0 -- -- 80
2019-04-05 22:00:00 7.3 11 Oeste 33 Oeste 0 -- -- 75
2019-04-05 21:00:00 8 15 Oeste 30 Oeste 0 -- -- 75
2019-04-05 20:00:00 8.8 15 Oeste 35 Sudoeste 0 -- -- 71
2019-04-05 19:00:00 9.6 15 Oeste 46 Noroeste 0 -- -- 63
2019-04-05 18:00:00 11 9 Oeste 36 Oeste 0 -- -- 62
2019-04-05 17:00:00 11.3 11 Oeste 39 Oeste 0 -- -- 52
2019-04-05 16:00:00 12 12 Oeste 32 Oeste 0 -- -- 58
2019-04-05 15:00:00 10.5 7 Noroeste 30 Sudoeste 0 -- -- 68
2019-04-05 14:00:00 8.4 13 Oeste 34 Sudoeste 0.2 -- -- 83
2019-04-05 13:00:00 8.3 8 Oeste 21 Oeste 0 -- -- 80
2019-04-05 12:00:00 7.5 8 Oeste 25 Oeste 0.2 -- -- 88
2019-04-05 11:00:00 6.1 14 Oeste 33 Oeste 0.6 -- -- 92
2019-04-05 10:00:00 7.2 12 Oeste 24 Oeste 0 -- -- 92
2019-04-05 09:00:00 7.3 5 Sudoeste 13 Sudoeste 0 -- -- 95
2019-04-05 08:00:00 7.1 0 Calma 14 Oeste 0 -- -- 95
2019-04-05 07:00:00 7.3 5 Sudoeste 19 Oeste 0.2 -- -- 95
2019-04-05 06:00:00 7.4 2 Sudoeste 13 Sur 0.2 -- -- 96
2019-04-05 05:00:00 7.3 3 Sur 15 Sur 0 -- -- 96
2019-04-05 04:00:00 7.2 4 Sur 19 Sur 0.3 -- -- 96
2019-04-05 03:00:00 7 3 Sudeste 12 Sur 3.1 -- -- 96
2019-04-05 02:00:00 7.1 2 Sur 8 Sur 1.4 -- -- 93
2019-04-05 01:00:00 7.2 3 Sudeste 8 Este 0 -- -- 92
2019-04-05 00:00:00 6.9 3 Oeste 12 Oeste 0.2 -- -- 94
2019-04-04 23:00:00 7.1 5 Oeste 21 Oeste 0.6 -- -- 92
2019-04-04 22:00:00 8.3 12 Oeste 39 Oeste 0 -- -- 79
2019-04-04 21:00:00 12.6 12 Oeste 26 Oeste 0 -- -- 42
2019-04-04 20:00:00 13.5 10 Oeste 31 Oeste 0 -- -- 36
2019-04-04 19:00:00 15.3 10 Oeste 26 Noroeste 0 -- -- 35
2019-04-04 18:00:00 16.1 11 Oeste 28 Sudoeste 0 -- -- 33
2019-04-04 17:00:00 17.3 12 Oeste 25 Oeste 0 -- -- 36
2019-04-04 16:00:00 17.3 3 Sudoeste 21 Sudoeste 0 -- -- 39
2019-04-04 15:00:00 15.8 4 Sudoeste 17 Oeste 0 -- -- 39
2019-04-04 14:00:00 14.5 2 Oeste 13 Sudoeste 0 -- -- 42
2019-04-04 13:00:00 12.8 4 Sudoeste 14 Sudoeste 0 -- -- 45
2019-04-04 12:00:00 11.5 3 Noroeste 17 Norte 0 -- -- 49
2019-04-04 11:00:00 9.2 5 Nordeste 21 Nordeste 0 -- -- 52
2019-04-04 10:00:00 6.8 9 Nordeste 25 Norte 0 -- -- 57
2019-04-04 09:00:00 5.3 10 Nordeste 33 Nordeste 0 -- -- 61
2019-04-04 08:00:00 4.5 10 Norte 33 Norte 0 -- -- 63
2019-04-04 07:00:00 4.7 12 Norte 28 Norte 0 -- -- 61
2019-04-04 06:00:00 5.3 10 Norte 28 Norte 0 -- -- 59
2019-04-04 05:00:00 5.8 10 Norte 30 Noroeste 0 -- -- 56
2019-04-04 04:00:00 6.2 9 Norte 23 Norte 0 -- -- 54
2019-04-04 03:00:00 6.7 5 Nordeste 23 Nordeste 0 -- -- 51
2019-04-04 02:00:00 7.5 9 Nordeste 27 Nordeste 0 -- -- 48
2019-04-04 01:00:00 8.8 13 Nordeste 31 Nordeste 0 -- -- 46
2019-04-04 00:00:00 9.5 11 Nordeste 31 Nordeste 0 -- -- 46
2019-04-03 23:00:00 9.8 5 Nordeste 18 Norte 0 -- -- 45
2019-04-03 22:00:00 10.6 5 Noroeste 23 Noroeste 0 -- -- 42
2019-04-03 21:00:00 11.8 7 Noroeste 35 Noroeste 0 -- -- 39
2019-04-03 20:00:00 14 9 Noroeste 35 Noroeste 0 -- -- 38
2019-04-03 19:00:00 16.1 12 Noroeste 37 Norte 0 -- -- 37
2019-04-03 18:00:00 16.8 14 Noroeste 37 Norte 0 -- -- 36
2019-04-03 17:00:00 17.3 8 Norte 33 Noroeste 0 -- -- 37
2019-04-03 16:00:00 17.5 9 Noroeste 34 Noroeste 0 -- -- 38
2019-04-03 15:00:00 16.5 10 Norte 31 Norte 0 -- -- 41
2019-04-03 14:00:00 15.7 12 Noroeste 31 Noroeste 0 -- -- 45
2019-04-03 13:00:00 15 9 Norte 32 Noroeste 0 -- -- 51
2019-04-03 12:00:00 13.5 8 Noroeste 33 Noroeste 0 -- -- 58
2019-04-03 11:00:00 11.4 11 Norte 34 Norte 0 -- -- 65
2019-04-03 10:00:00 9.1 8 Noroeste 29 Noroeste 0 -- -- 80
2019-04-03 09:00:00 7.1 6 Noroeste 19 Noroeste 0 -- -- 85
2019-04-03 08:00:00 7.4 8 Noroeste 19 Oeste 0 -- -- 82
2019-04-03 07:00:00 8.1 5 Noroeste 19 Noroeste 0 -- -- 79
2019-04-03 06:00:00 8.8 6 Noroeste 19 Noroeste 0 -- -- 76
2019-04-03 05:00:00 9.8 5 Noroeste 18 Noroeste 0 -- -- 74
2019-04-03 04:00:00 10.5 6 Noroeste 19 Noroeste 0 -- -- 69
2019-04-03 03:00:00 11.4 8 Noroeste 17 Oeste 0 -- -- 65
2019-04-03 02:00:00 12.4 5 Noroeste 20 Norte 0 -- -- 61
2019-04-03 01:00:00 13 5 Noroeste 15 Oeste 0 -- -- 61
2019-04-03 00:00:00 14 4 Noroeste 14 Norte 0 -- -- 56
2019-04-02 23:00:00 15.5 4 Noroeste 15 Oeste 0 -- -- 55
2019-04-02 22:00:00 15.9 5 Oeste 14 Oeste 0 -- -- 53
2019-04-02 21:00:00 17 6 Oeste 15 Oeste 0 -- -- 49
2019-04-02 20:00:00 18.3 8 Oeste 26 Noroeste 0 -- -- 46
2019-04-02 19:00:00 21.2 10 Oeste 27 Oeste 0 -- -- 42
2019-04-02 18:00:00 20.2 3 Norte 20 Oeste 0 -- -- 45
2019-04-02 17:00:00 20.9 3 Oeste 15 Oeste 0 -- -- 48
2019-04-02 16:00:00 16.4 0 Calma 26 Noroeste 0.9 -- -- 67
2019-04-02 15:00:00 20.3 6 Oeste 20 Sudoeste 0 -- -- 42
2019-04-02 14:00:00 19.4 5 Oeste 21 Oeste 0 -- -- 52
2019-04-02 13:00:00 17.9 5 Oeste 17 Oeste 0 -- -- 64
2019-04-02 12:00:00 15.9 3 Noroeste 14 Oeste 0 -- -- 72
2019-04-02 11:00:00 11.9 6 Oeste 13 Oeste 0 -- -- 87
2019-04-02 10:00:00 10 4 Oeste 12 Noroeste 0 -- -- 96
2019-04-02 09:00:00 8.8 3 Noroeste 9 Noroeste 0 -- -- 97
2019-04-02 08:00:00 8.8 0 Calma 6 Oeste 0 -- -- 96
2019-04-02 07:00:00 9.7 0 Calma 5 Este 0 -- -- 93
2019-04-02 06:00:00 10.7 0 Calma 11 Sudoeste 0 -- -- 90
2019-04-02 05:00:00 11.2 0 Calma 11 Noroeste 0 -- -- 88
2019-04-02 04:00:00 11.1 2 Oeste 12 Noroeste 0 -- -- 90
2019-04-02 03:00:00 11 3 Oeste 9 Noroeste 0 -- -- 91
2019-04-02 02:00:00 11.2 0 Calma 6 Sudeste 0 -- -- 85
2019-04-02 01:00:00 12.1 3 Sudeste 9 Sudeste 0 -- -- 81
2019-04-02 00:00:00 12.3 0 Calma 7 Oeste 0 -- -- 81
2019-04-01 23:00:00 13 3 Oeste 10 Norte 0 -- -- 75
2019-04-01 22:00:00 14.6 2 Nordeste 14 Norte 0 -- -- 69
2019-04-01 21:00:00 15.9 4 Noroeste 10 Noroeste 0 -- -- 67
2019-04-01 20:00:00 16.6 3 Noroeste 21 Noroeste 0 -- -- 65
2019-04-01 19:00:00 17.1 3 Oeste 12 Noroeste 0 -- -- 66
2019-04-01 18:00:00 17 4 Noroeste 12 Noroeste 0 -- -- 67
2019-04-01 17:00:00 16.6 3 Oeste 16 Sur 0 -- -- 67
2019-04-01 16:00:00 17.7 3 Sudoeste 13 Sudeste 0 -- -- 61
2019-04-01 15:00:00 17.7 3 Sudeste 16 Sudeste 0 -- -- 60
2019-04-01 14:00:00 16.7 3 Sudeste 20 Este 0 -- -- 67
2019-04-01 13:00:00 16 3 Sudeste 17 Sudeste 0 -- -- 72
2019-04-01 12:00:00 15.6 4 Sudeste 16 Sudeste 0 -- -- 76
2019-04-01 11:00:00 13.6 5 Sudeste 16 Sudeste 0 -- -- 80
2019-04-01 10:00:00 12 5 Sudeste 19 Este 0 -- -- 84
2019-04-01 09:00:00 11.2 6 Este 17 Este 0 -- -- 84
2019-04-01 08:00:00 10.2 5 Este 22 Este 0 -- -- 85
2019-04-01 07:00:00 10.7 9 Este 24 Sudeste 0 -- -- 83
2019-04-01 06:00:00 11.1 6 Este 24 Este 0 -- -- 80
2019-04-01 05:00:00 11.6 5 Este 18 Sudeste 0 -- -- 76
2019-04-01 04:00:00 12.3 6 Este 22 Este 0 -- -- 72
2019-04-01 03:00:00 12.4 7 Este 26 Este 0 -- -- 71
2019-04-01 02:00:00 12.8 8 Sudeste 27 Sudeste 0 -- -- 70
2019-04-01 01:00:00 12.9 8 Este 27 Este 0 -- -- 69
2019-04-01 00:00:00 12.6 7 Sudeste 22 Sudeste 0 -- -- 68
2019-03-31 23:00:00 13.4 9 Este 33 Este 0 -- -- 66
2019-03-31 22:00:00 13.7 8 Este 26 Este 0 -- -- 65
2019-03-31 21:00:00 15.5 7 Sudeste 23 Este 0 -- -- 61
2019-03-31 20:00:00 17.6 6 Sudeste 22 Este 0 -- -- 54
2019-03-31 19:00:00 19.5 6 Sudeste 24 Este 0 -- -- 50
2019-03-31 18:00:00 20.5 6 Este 24 Nordeste 0 -- -- 50
2019-03-31 17:00:00 18.4 9 Este 31 Este 0 -- -- 52
2019-03-31 16:00:00 20.8 7 Este 32 Este 0 -- -- 48
2019-03-31 15:00:00 20.3 8 Sudeste 26 Este 0 -- -- 50
2019-03-31 14:00:00 18.2 8 Este 29 Este 0 -- -- 53
2019-03-31 13:00:00 16.8 6 Este 33 Sudeste 0 -- -- 57
2019-03-31 12:00:00 15.6 9 Sudeste 32 Sudeste 0 -- -- 60
2019-03-31 11:00:00 13.4 7 Sudeste 28 Este 0 -- -- 64
2019-03-31 10:00:00 12 8 Este 23 Este 0 -- -- 66
2019-03-31 09:00:00 12.2 7 Este 20 Este 0 -- -- 63
2019-03-31 08:00:00 11.9 7 Este 24 Este 0 -- -- 62
2019-03-31 07:00:00 11.5 7 Este 23 Este 0 -- -- 61
2019-03-31 06:00:00 11.9 5 Este 20 Sudeste 0 -- -- 57
2019-03-31 05:00:00 11.9 2 Este 9 Sudeste 0 -- -- 56
2019-03-31 03:00:00 12.6 3 Este 9 Este 0 -- -- 55
2019-03-31 01:00:00 12.7 3 Sur 14 Sur 0 -- -- 56
2019-03-31 00:00:00 13.6 4 Este 13 Este 0 -- -- 54
2019-03-30 23:00:00 14 4 Este 15 Nordeste 0 -- -- 55
2019-03-30 22:00:00 15.7 3 Este 9 Este 0 -- -- 51
2019-03-30 21:00:00 16.1 3 Este 10 Sudeste 0 -- -- 47
2019-03-30 20:00:00 17.5 3 Sudeste 14 Sudeste 0 -- -- 42
2019-03-30 19:00:00 18.5 4 Este 19 Sudeste 0 -- -- 41
2019-03-30 18:00:00 19.8 3 Sudeste 19 Este 0 -- -- 40
2019-03-30 17:00:00 22 5 Sudeste 25 Sudeste 0 -- -- 39
2019-03-30 16:00:00 21.6 7 Sudeste 24 Este 0 -- -- 41
2019-03-30 15:00:00 20.6 5 Sudeste 25 Sudeste 0 -- -- 42
2019-03-30 14:00:00 19.6 6 Sudeste 28 Sudeste 0 -- -- 45
2019-03-30 13:00:00 17.9 5 Sudeste 25 Sudeste 0 -- -- 49
2019-03-30 12:00:00 16.1 8 Sudeste 31 Este 0 -- -- 52
2019-03-30 11:00:00 13.4 11 Este 32 Este 0 -- -- 55
2019-03-30 10:00:00 11.9 7 Sudeste 32 Sudeste 0 -- -- 60
2019-03-30 09:00:00 10 13 Este 33 Este 0 -- -- 64
2019-03-30 08:00:00 8.9 10 Sudeste 31 Este 0 -- -- 64
2019-03-30 07:00:00 8.9 8 Sudeste 28 Este 0 -- -- 64
2019-03-30 06:00:00 9.8 10 Este 35 Este 0 -- -- 60
2019-03-30 05:00:00 10.4 11 Este 32 Este 0 -- -- 57
2019-03-30 04:00:00 10 13 Este 26 Este 0 -- -- 54
2019-03-30 03:00:00 11.5 8 Este 29 Sudeste 0 -- -- 48
2019-03-30 02:00:00 11.7 5 Este 20 Este 0 -- -- 49
2019-03-30 01:00:00 12.2 7 Este 19 Este 0 -- -- 47
2019-03-30 00:00:00 11.7 8 Este 16 Este 0 -- -- 48
2019-03-29 23:00:00 12.5 4 Este 11 Este 0 -- -- 46
2019-03-29 22:00:00 13.6 4 Este 12 Este 0 -- -- 42
2019-03-29 21:00:00 15.3 4 Este 10 Este 0 -- -- 39
2019-03-29 20:00:00 16.6 0 Calma 18 Sudeste 0 -- -- 37
2019-03-29 19:00:00 18.8 6 Este 21 Este 0 -- -- 34
2019-03-29 18:00:00 20.6 6 Sudeste 23 Sudeste 0 -- -- 34
2019-03-29 17:00:00 20.9 6 Sudeste 31 Este 0 -- -- 34
2019-03-29 16:00:00 21 6 Sudeste 28 Este 0 -- -- 35
2019-03-29 15:00:00 20.5 7 Sudeste 28 Sudeste 0 -- -- 36
2019-03-29 14:00:00 19.6 11 Sudeste 37 Este 0 -- -- 36
2019-03-29 13:00:00 18.8 11 Sudeste 36 Este 0 -- -- 38
2019-03-29 12:00:00 17.2 11 Sudeste 35 Sudeste 0 -- -- 41
2019-03-29 11:00:00 14.2 8 Este 31 Este 0 -- -- 45
2019-03-29 10:00:00 12 9 Este 33 Sudeste 0 -- -- 47
2019-03-29 09:00:00 10 10 Sudeste 39 Este 0 -- -- 48
2019-03-29 08:00:00 9.3 6 Sudeste 28 Este 0 -- -- 48
2019-03-29 07:00:00 9.2 7 Sudeste 26 Sudeste 0 -- -- 48
2019-03-29 06:00:00 9.7 4 Sudeste 15 Sur 0 -- -- 48
2019-03-29 05:00:00 10.3 3 Sudeste 15 Este 0 -- -- 47
2019-03-29 04:00:00 11.3 5 Este 13 Este 0 -- -- 47
2019-03-29 03:00:00 10.5 5 Nordeste 18 Este 0 -- -- 50
2019-03-29 02:00:00 11.4 7 Este 17 Este 0 -- -- 49
2019-03-29 01:00:00 11.7 4 Este 12 Este 0 -- -- 48
2019-03-29 00:00:00 12.3 4 Este 12 Este 0 -- -- 46
2019-03-28 23:00:00 13.6 5 Este 14 Este 0 -- -- 41
2019-03-28 22:00:00 15.5 4 Este 12 Este 0 -- -- 37
2019-03-28 21:00:00 16.1 4 Este 16 Este 0 -- -- 36
2019-03-28 20:00:00 17.7 3 Este 16 Este 0 -- -- 34
2019-03-28 19:00:00 20.4 4 Sudeste 21 Sudeste 0 -- -- 31
2019-03-28 18:00:00 22.4 4 Sudeste 19 Sudeste 0 -- -- 31
2019-03-28 17:00:00 22.5 5 Sudeste 18 Sudeste 0 -- -- 31
2019-03-28 16:00:00 22.4 4 Sudeste 21 Este 0 -- -- 31
2019-03-28 15:00:00 21.7 4 Sudeste 27 Sudeste 0 -- -- 32
2019-03-28 14:00:00 20.7 6 Sudeste 28 Sudeste 0 -- -- 35
2019-03-28 13:00:00 19.4 7 Sudeste 26 Sudeste 0 -- -- 39
2019-03-28 12:00:00 18 6 Sudeste 24 Sudeste 0 -- -- 42
2019-03-28 11:00:00 15.5 5 Sudeste 26 Sudeste 0 -- -- 48
2019-03-28 10:00:00 11.7 8 Este 24 Este 0 -- -- 52
2019-03-28 09:00:00 9.8 8 Este 26 Este 0 -- -- 53
2019-03-28 08:00:00 8.6 13 Sudeste 28 Este 0 -- -- 53
2019-03-28 07:00:00 9.2 8 Este 26 Este 0 -- -- 53
2019-03-28 06:00:00 9.7 5 Este 14 Este 0 -- -- 55
2019-03-28 05:00:00 9.5 4 Este 11 Este 0 -- -- 57
2019-03-28 04:00:00 9.8 3 Este 12 Este 0 -- -- 57
2019-03-28 03:00:00 9.6 5 Este 14 Nordeste 0 -- -- 59
2019-03-28 02:00:00 10 6 Este 12 Sudeste 0 -- -- 61
2019-03-28 01:00:00 10.9 5 Este 10 Este 0 -- -- 59
2019-03-28 00:00:00 11.8 6 Este 30 Este 0 -- -- 55
2019-03-27 23:00:00 12.8 3 Este 12 Este 0 -- -- 52
2019-03-27 22:00:00 14.2 4 Este 9 Sudeste 0 -- -- 46
2019-03-27 21:00:00 15.7 3 Nordeste 10 Este 0 -- -- 42
2019-03-27 20:00:00 16.5 3 Este 11 Este 0 -- -- 42
2019-03-27 19:00:00 19.3 0 Calma 15 Sur 0 -- -- 39
2019-03-27 18:00:00 21 3 Sudeste 17 Sur 0 -- -- 38
2019-03-27 17:00:00 21.3 4 Sudeste 22 Sur 0 -- -- 37
2019-03-27 16:00:00 20.7 6 Sudeste 23 Sudeste 0 -- -- 37
2019-03-27 15:00:00 20.4 7 Sudeste 25 Sudeste 0 -- -- 39
2019-03-27 14:00:00 19.2 6 Sudeste 26 Este 0 -- -- 42
2019-03-27 13:00:00 17.9 8 Sudeste 28 Sudeste 0 -- -- 45
2019-03-27 12:00:00 16.3 8 Sudeste 36 Este 0 -- -- 47
2019-03-27 11:00:00 14.3 13 Sudeste 37 Este 0 -- -- 49
2019-03-27 10:00:00 12.5 9 Sudeste 41 Este 0 -- -- 53
2019-03-27 09:00:00 10.8 16 Este 39 Este 0 -- -- 54
2019-03-27 08:00:00 9.6 14 Sudeste 35 Este 0 -- -- 58
2019-03-27 07:00:00 10.7 12 Sudeste 40 Sudeste 0 -- -- 51
2019-03-27 06:00:00 11.3 8 Sudeste 30 Este 0 -- -- 50
2019-03-27 05:00:00 12.2 8 Sudeste 31 Este 0 -- -- 45
2019-03-27 04:00:00 13.7 3 Sudeste 31 Este 0 -- -- 41
2019-03-27 03:00:00 14.7 13 Este 33 Este 0 -- -- 39
2019-03-27 02:00:00 15.6 7 Este 28 Sudeste 0 -- -- 36
2019-03-27 01:00:00 15.9 6 Sudeste 36 Este 0 -- -- 34
2019-03-27 00:00:00 18.1 15 Este 44 Este 0 -- -- 32
2019-03-26 23:00:00 18.1 17 Este 43 Sudeste 0 -- -- 34
2019-03-26 22:00:00 17.1 3 Este 15 Este 0 -- -- 38
2019-03-26 21:00:00 18.7 5 Este 26 Este 0 -- -- 35
2019-03-26 20:00:00 19.4 9 Sudeste 22 Sudeste 0 -- -- 36
2019-03-26 19:00:00 21.7 5 Sudeste 25 Este 0 -- -- 34
2019-03-26 18:00:00 23.4 10 Sudeste 32 Este 0 -- -- 32
2019-03-26 17:00:00 23.9 9 Sudeste 31 Sudeste 0 -- -- 32
2019-03-26 16:00:00 23.7 7 Este 34 Este 0 -- -- 35
2019-03-26 15:00:00 22.7 8 Este 33 Sudeste 0 -- -- 36
2019-03-26 14:00:00 21 9 Sudeste 29 Este 0 -- -- 41
2019-03-26 13:00:00 19 5 Sudeste 32 Este 0 -- -- 42
2019-03-26 12:00:00 16.7 8 Este 29 Sudeste 0 -- -- 45
2019-03-26 11:00:00 13.5 9 Este 26 Este 0 -- -- 49
2019-03-26 10:00:00 11.6 5 Sudeste 22 Sudeste 0 -- -- 52
2019-03-26 09:00:00 9.2 7 Este 27 Este 0 -- -- 54
2019-03-26 08:00:00 8.5 9 Este 24 Sudeste 0 -- -- 54
2019-03-26 07:00:00 9.4 6 Este 21 Este 0 -- -- 51
2019-03-26 06:00:00 9.9 4 Este 30 Sudeste 0 -- -- 49
2019-03-26 05:00:00 10.9 6 Este 21 Este 0 -- -- 48
2019-03-26 04:00:00 11.6 4 Nordeste 20 Este 0 -- -- 48
2019-03-26 03:00:00 9.8 0 Calma 9 Este 0 -- -- 55
2019-03-26 02:00:00 11.2 0 Calma 5 Sur 0 -- -- 53
2019-03-26 01:00:00 12.9 0 Calma 13 Nordeste 0 -- -- 47
2019-03-26 00:00:00 13.9 5 Nordeste 14 Norte 0 -- -- 45
2019-03-25 23:00:00 16 3 Nordeste 24 Nordeste 0 -- -- 40
2019-03-25 22:00:00 16.4 9 Nordeste 30 Nordeste 0 -- -- 39
2019-03-25 21:00:00 17.9 10 Nordeste 27 Este 0 -- -- 36
2019-03-25 20:00:00 19.4 6 Nordeste 17 Norte 0 -- -- 36
2019-03-25 19:00:00 22.2 4 Este 10 Este 0 -- -- 35
2019-03-25 18:00:00 23.9 2 Este 20 Nordeste 0 -- -- 35
2019-03-25 17:00:00 23.5 2 Norte 20 Norte 0 -- -- 35
2019-03-25 16:00:00 24.4 3 Sudeste 14 Sudeste 0 -- -- 34
2019-03-25 15:00:00 23.5 3 Sudeste 16 Este 0 -- -- 34
2019-03-25 14:00:00 23.1 4 Sudeste 18 Sudeste 0 -- -- 36
2019-03-25 13:00:00 22 4 Este 18 Sudeste 0 -- -- 39
2019-03-25 12:00:00 19.8 4 Sudeste 15 Este 0 -- -- 45
2019-03-25 11:00:00 17.2 4 Sudeste 18 Sudeste 0 -- -- 48
2019-03-25 10:00:00 15 5 Este 14 Sudeste 0 -- -- 51
2019-03-25 09:00:00 12.7 5 Este 23 Este 0 -- -- 51
2019-03-25 08:00:00 12.2 7 Este 25 Este 0 -- -- 51
2019-03-25 07:00:00 12 4 Este 20 Este 0 -- -- 52
2019-03-25 06:00:00 12.6 5 Este 20 Este 0 -- -- 52
2019-03-25 05:00:00 11.9 6 Este 16 Sudeste 0 -- -- 53
2019-03-25 04:00:00 11.9 5 Este 13 Este 0 -- -- 53
2019-03-25 03:00:00 12.4 5 Este 13 Este 0 -- -- 51
2019-03-25 02:00:00 13 2 Nordeste 11 Nordeste 0 -- -- 50
2019-03-25 01:00:00 13.4 4 Este 9 Este 0 -- -- 49
2019-03-25 00:00:00 15.1 4 Este 9 Nordeste 0 -- -- 45